Time;durP1;ratioP1;P1;durP2;ratioP2;P2;SDS_P1;SDS_P2;PMS_P1;PMS_P2;Temp;Humidity;BMP_temperature;BMP_pressure;BME280_temperature;BME280_humidity;BME280_pressure;Samples;Min_cycle;Max_cycle;Signal;HPM_P1;HPM_P2
2021/07/07 00:05:10;;;;;;;7.95;1.27;;;;;;;15.85;86.15;100334.09;20663198;28;20061;-68
2021/07/07 00:15:17;;;;;;;4.93;1.30;;;;;;;15.81;86.40;100337.78;20663760;28;20050;-69
2021/07/07 00:25:19;;;;;;;3.03;1.13;;;;;;;15.75;86.33;100333.59;20662847;28;20460;-68
2021/07/07 00:35:22;;;;;;;5.15;1.58;;;;;;;15.77;85.45;100330.94;20660283;28;20105;-69
2021/07/07 00:45:24;;;;;;;5.47;1.20;;;;;;;15.73;85.82;100340.72;20661090;28;20108;-68
2021/07/07 00:55:26;;;;;;;4.07;1.20;;;;;;;15.67;84.92;100325.13;20659769;28;20058;-69
2021/07/07 01:05:28;;;;;;;3.75;0.95;;;;;;;15.60;85.12;100324.44;20656587;28;20057;-68
2021/07/07 01:15:32;;;;;;;7.45;1.45;;;;;;;15.49;84.95;100353.03;20657880;28;20105;-68
2021/07/07 01:25:34;;;;;;;2.53;1.30;;;;;;;15.40;85.40;100342.81;20658481;28;20559;-69
2021/07/07 01:35:37;;;;;;;3.25;1.60;;;;;;;15.40;85.04;100340.16;20657681;28;20050;-69
2021/07/07 01:45:38;;;;;;;6.38;1.63;;;;;;;15.34;84.87;100340.41;20657629;28;20101;-69
2021/07/07 01:55:40;;;;;;;6.70;1.58;;;;;;;15.23;85.30;100346.03;20657288;28;20097;-69
2021/07/07 02:05:42;;;;;;;6.38;1.70;;;;;;;15.19;85.31;100347.09;20656159;28;20050;-68
2021/07/07 02:15:44;;;;;;;3.78;1.50;;;;;;;15.23;85.49;100345.19;20663153;28;20054;-68
2021/07/07 02:25:46;;;;;;;4.38;1.77;;;;;;;15.16;85.71;100333.16;20672129;28;20054;-68
2021/07/07 02:35:48;;;;;;;5.32;1.70;;;;;;;15.16;85.93;100343.69;20670862;28;20049;-68
2021/07/07 02:45:51;;;;;;;5.68;1.98;;;;;;;14.99;85.95;100368.00;20670340;28;20109;-68
2021/07/07 02:55:53;;;;;;;6.88;1.80;;;;;;;14.98;87.14;100368.91;20669623;28;20043;-68
2021/07/07 03:06:00;;;;;;;7.85;2.05;;;;;;;15.02;87.09;100355.59;20650699;28;20474;-69
2021/07/07 03:16:05;;;;;;;6.05;2.35;;;;;;;15.02;86.75;100350.31;20667601;28;20193;-68
2021/07/07 03:26:07;;;;;;;9.18;2.45;;;;;;;15.00;87.04;100359.19;20667136;28;20050;-68
2021/07/07 03:36:09;;;;;;;9.07;2.42;;;;;;;14.99;86.91;100368.84;20665255;28;20073;-68
2021/07/07 03:46:10;;;;;;;5.80;2.55;;;;;;;14.94;87.31;100386.63;20666238;28;20078;-69
2021/07/07 03:56:12;;;;;;;6.00;2.45;;;;;;;14.95;87.30;100398.91;20665294;28;20050;-69
2021/07/07 04:06:14;;;;;;;5.65;2.22;;;;;;;14.94;87.57;100399.78;20663587;28;20558;-68
2021/07/07 04:16:16;;;;;;;9.40;3.00;;;;;;;14.99;87.00;100418.97;20644768;28;20054;-69
2021/07/07 04:26:18;;;;;;;7.50;3.13;;;;;;;14.97;87.83;100415.53;20662868;28;20050;-69
2021/07/07 04:36:21;;;;;;;5.40;2.88;;;;;;;15.03;86.99;100436.41;20659143;28;20038;-69
2021/07/07 04:46:22;;;;;;;9.23;3.08;;;;;;;15.18;86.63;100431.53;20661546;28;20486;-68
2021/07/07 04:56:24;;;;;;;8.80;2.63;;;;;;;15.32;86.12;100435.41;20660588;28;20047;-69
2021/07/07 05:06:26;;;;;;;4.85;2.50;;;;;;;15.19;86.38;100443.78;20659455;28;20053;-69
2021/07/07 05:16:28;;;;;;;6.35;2.80;;;;;;;15.33;86.64;100449.47;20659443;28;20509;-69
2021/07/07 05:26:30;;;;;;;7.70;2.53;;;;;;;15.44;86.15;100436.78;20658850;28;20465;-69
2021/07/07 05:36:32;;;;;;;8.43;3.00;;;;;;;15.55;85.50;100445.16;20657505;28;20101;-69
2021/07/07 05:46:34;;;;;;;8.85;2.92;;;;;;;15.61;85.15;100478.38;20657466;28;20050;-69
2021/07/07 05:56:35;;;;;;;7.15;2.70;;;;;;;15.99;83.46;100489.38;20657007;28;20485;-69
2021/07/07 06:06:37;;;;;;;5.40;2.13;;;;;;;16.40;83.30;100464.94;20656228;28;20113;-69
2021/07/07 06:16:39;;;;;;;6.30;2.55;;;;;;;16.45;81.32;100470.03;20655512;28;20140;-69
2021/07/07 06:26:41;;;;;;;5.68;2.13;;;;;;;16.59;82.18;100494.16;20654773;28;20088;-69
2021/07/07 06:36:43;;;;;;;8.50;2.47;;;;;;;16.73;79.50;100503.38;20653918;28;20046;-69
2021/07/07 06:46:45;;;;;;;7.13;1.90;;;;;;;16.86;80.36;100504.56;20652810;28;20046;-69
2021/07/07 06:56:46;;;;;;;4.95;2.17;;;;;;;16.74;81.07;100519.16;20653894;28;20054;-69
2021/07/07 07:06:48;;;;;;;4.75;2.10;;;;;;;16.57;81.21;100509.19;20646458;28;20097;-68
2021/07/07 07:16:50;;;;;;;7.43;2.13;;;;;;;16.87;81.40;100524.84;20642496;28;20394;-68
2021/07/07 07:26:52;;;;;;;4.57;2.30;;;;;;;16.99;80.78;100526.97;20599696;28;20513;-69
2021/07/07 07:36:59;;;;;;;6.38;1.98;;;;;;;17.34;78.21;100535.25;20651382;28;20104;-69
2021/07/07 07:47:01;;;;;;;6.00;2.70;;;;;;;17.51;78.55;100518.69;20746810;28;20476;-69
2021/07/07 07:57:03;;;;;;;8.55;2.00;;;;;;;17.87;77.42;100527.72;20747375;28;20046;-69
2021/07/07 08:07:06;;;;;;;8.80;2.17;;;;;;;18.24;76.84;100533.16;20687251;28;20050;-69
2021/07/07 08:17:12;;;;;;;7.25;2.20;;;;;;;18.57;73.93;100526.31;20599947;28;20051;-69
2021/07/07 08:27:14;;;;;;;3.75;1.45;;;;;;;18.86;71.72;100534.72;20617826;28;20137;-71
2021/07/07 08:37:15;;;;;;;4.70;1.60;;;;;;;19.16;72.44;100537.66;20660878;28;20042;-69
2021/07/07 08:47:18;;;;;;;4.60;1.15;;;;;;;19.52;70.59;100548.25;20660279;28;20050;-71
2021/07/07 08:57:20;;;;;;;5.80;1.33;;;;;;;19.91;69.95;100557.81;20660021;28;20047;-71
2021/07/07 09:07:23;;;;;;;3.38;1.38;;;;;;;20.21;66.47;100555.34;20653814;28;20465;-70
2021/07/07 09:17:24;;;;;;;4.13;1.65;;;;;;;20.66;66.87;100557.34;20591354;28;20053;-70
2021/07/07 09:27:33;;;;;;;4.03;1.33;;;;;;;20.69;64.41;100562.50;20577952;28;20492;-70
2021/07/07 09:37:43;;;;;;;5.55;1.35;;;;;;;20.88;62.90;100569.47;20638348;28;20488;-70
2021/07/07 09:47:46;;;;;;;6.20;1.38;;;;;;;21.50;63.28;100579.22;20657964;28;20485;-70
2021/07/07 09:57:49;;;;;;;7.57;1.47;;;;;;;21.95;61.63;100568.63;20657226;28;20057;-71
2021/07/07 10:07:51;;;;;;;3.20;1.17;;;;;;;22.00;58.16;100564.72;20593746;28;20448;-70
2021/07/07 10:17:54;;;;;;;3.40;1.10;;;;;;;22.32;55.17;100558.38;20640124;28;20075;-69
2021/07/07 10:28:06;;;;;;;6.88;1.30;;;;;;;22.71;54.06;100553.22;20656434;28;20054;-69
2021/07/07 10:38:09;;;;;;;4.68;1.10;;;;;;;22.75;52.30;100545.84;20664410;28;20501;-69
2021/07/07 10:48:24;;;;;;;3.67;1.13;;;;;;;23.02;54.04;100551.25;20671548;28;20101;-70
2021/07/07 10:58:27;;;;;;;4.70;1.33;;;;;;;23.09;52.58;100543.69;20670400;28;20053;-70
2021/07/07 11:08:31;;;;;;;7.93;1.50;;;;;;;23.34;50.03;100537.63;20669037;28;20493;-70
2021/07/07 11:18:33;;;;;;;5.03;1.20;;;;;;;22.86;47.74;100529.16;20668704;28;20483;-69
2021/07/07 11:28:35;;;;;;;4.35;1.10;;;;;;;23.48;51.00;100524.19;20665946;28;20050;-69
2021/07/07 11:38:36;;;;;;;5.03;1.40;;;;;;;23.48;46.08;100518.84;20664669;28;20412;-70
2021/07/07 11:58:47;;;;;;;5.72;1.30;;;;;;;23.80;48.27;100509.47;20665190;28;20047;-70
2021/07/07 12:08:53;;;;;;;6.53;1.25;;;;;;;24.04;43.65;100500.72;20663959;28;20045;-71
2021/07/07 12:19:04;;;;;;;5.57;1.38;;;;;;;23.90;44.22;100493.66;20662184;28;20057;-70
2021/07/07 12:29:09;;;;;;;5.35;1.30;;;;;;;24.24;45.91;100496.63;20662123;28;20050;-70
2021/07/07 12:39:15;;;;;;;4.43;1.20;;;;;;;24.39;41.86;100489.38;20659126;28;20100;-69
2021/07/07 12:49:23;;;;;;;8.55;1.25;;;;;;;24.50;42.29;100481.41;20661913;28;20719;-69
2021/07/07 12:59:27;;;;;;;7.45;1.25;;;;;;;24.12;35.56;100492.16;20658253;28;20567;-70
2021/07/07 13:09:29;;;;;;;4.67;1.37;;;;;;;24.30;42.80;100496.22;20655716;28;20109;-72
2021/07/07 13:19:36;;;;;;;4.18;1.00;;;;;;;24.58;39.53;100503.16;20656252;28;20101;-70
2021/07/07 13:29:39;;;;;;;4.45;1.00;;;;;;;24.73;38.31;100507.38;20576474;28;20058;-69
2021/07/07 13:39:45;;;;;;;4.17;1.10;;;;;;;24.78;38.35;100491.81;20606417;28;20416;-70
2021/07/07 13:49:47;;;;;;;4.15;1.15;;;;;;;24.81;38.10;100491.59;20656734;28;20053;-70
2021/07/07 13:59:49;;;;;;;3.42;0.95;;;;;;;25.06;36.67;100490.63;20657559;28;20069;-70
2021/07/07 14:09:51;;;;;;;4.55;1.10;;;;;;;25.09;36.84;100486.91;20661148;28;20551;-70
2021/07/07 14:19:54;;;;;;;4.55;1.00;;;;;;;25.49;33.36;100486.56;20673627;28;20423;-71
2021/07/07 14:29:55;;;;;;;2.97;0.80;;;;;;;25.28;36.78;100494.41;20672796;28;20042;-70
2021/07/07 14:39:57;;;;;;;3.85;1.10;;;;;;;25.58;35.83;100478.69;20671176;28;20559;-69
2021/07/07 14:49:59;;;;;;;4.45;1.30;;;;;;;25.54;32.88;100469.16;20653309;28;20563;-69
2021/07/07 15:00:01;;;;;;;2.38;1.00;;;;;;;25.69;34.00;100471.63;20668634;28;20058;-69
2021/07/07 15:10:03;;;;;;;2.58;0.90;;;;;;;26.03;32.66;100475.22;20732423;28;20057;-70
2021/07/07 15:20:06;;;;;;;4.57;0.77;;;;;;;25.84;32.99;100471.31;20749790;28;20100;-70
2021/07/07 15:30:08;;;;;;;;;;;;;;;26.09;33.80;100458.63;20748264;28;20053;-71
2021/07/07 15:40:11;;;;;;;5.13;1.08;;;;;;;25.74;33.45;100464.06;20750572;28;19925;-70
2021/07/07 15:50:15;;;;;;;3.80;1.10;;;;;;;25.84;35.64;100465.09;20748736;28;20546;-70
2021/07/07 16:00:17;;;;;;;3.72;1.40;;;;;;;25.93;34.84;100452.78;20746357;28;20100;-70
2021/07/07 16:10:19;;;;;;;5.65;1.40;;;;;;;26.32;34.37;100438.84;20745750;28;20096;-70
2021/07/07 16:20:21;;;;;;;3.60;0.82;;;;;;;26.52;32.28;100449.84;20745819;28;20463;-70
2021/07/07 16:30:24;;;;;;;4.65;1.02;;;;;;;26.57;33.01;100442.25;20743811;28;20057;-70
2021/07/07 16:40:26;;;;;;;3.90;1.43;;;;;;;26.42;36.63;100451.53;20743958;28;20081;-71
2021/07/07 16:50:28;;;;;;;3.17;0.98;;;;;;;26.47;35.94;100441.28;20743004;28;20100;-70
2021/07/07 17:00:36;;;;;;;4.57;1.48;;;;;;;26.21;37.82;100444.25;21142158;27;20363;-69
2021/07/07 17:10:38;;;;;;;4.18;1.60;;;;;;;26.25;35.93;100443.00;21140206;28;20463;-69
2021/07/07 17:20:41;;;;;;;2.78;1.17;;;;;;;25.76;40.87;100440.69;21139496;28;20116;-69
2021/07/07 17:30:43;;;;;;;3.73;1.40;;;;;;;25.38;42.62;100446.31;21138476;27;20040;-69
2021/07/07 17:40:46;;;;;;;4.53;1.65;;;;;;;25.39;42.29;100453.38;21137765;28;20417;-69
2021/07/07 17:50:48;;;;;;;5.25;1.58;;;;;;;25.51;42.38;100473.88;21137479;28;20044;-69
2021/07/07 18:00:50;;;;;;;3.95;1.20;;;;;;;25.43;41.94;100463.75;21299813;27;20072;-69
2021/07/07 18:10:52;;;;;;;5.93;1.40;;;;;;;25.41;43.24;100484.47;21255342;27;20047;-69
2021/07/07 18:20:54;;;;;;;5.00;1.42;;;;;;;25.37;43.12;100487.50;21247421;27;20084;-69
2021/07/07 18:30:57;;;;;;;4.72;1.70;;;;;;;24.78;46.34;100486.47;21248404;27;20043;-69
2021/07/07 18:40:58;;;;;;;3.80;1.30;;;;;;;24.54;47.37;100504.34;21247461;27;20047;-69
2021/07/07 18:51:01;;;;;;;5.90;1.35;;;;;;;24.07;49.32;100511.22;21249094;27;20051;-70
2021/07/07 19:01:03;;;;;;;3.67;1.50;;;;;;;23.45;54.01;100503.00;21237296;27;20043;-71
2021/07/07 19:11:05;;;;;;;8.70;1.77;;;;;;;23.16;52.88;100502.28;21232640;27;20047;-71
2021/07/07 19:21:07;;;;;;;3.53;1.50;;;;;;;22.68;57.48;100502.69;21156697;28;20044;-70
2021/07/07 19:31:08;;;;;;;5.22;1.52;;;;;;;22.24;58.85;100503.72;21156917;28;20051;-70
2021/07/07 19:41:10;;;;;;;5.18;1.67;;;;;;;21.43;62.66;100521.09;21157481;28;20070;-70
2021/07/07 19:51:12;;;;;;;3.00;1.55;;;;;;;21.22;63.51;100529.34;21155537;28;20172;-70
2021/07/07 20:01:14;;;;;;;4.32;1.40;;;;;;;21.05;64.91;100556.06;21155131;28;20109;-70
2021/07/07 20:11:16;;;;;;;4.35;1.70;;;;;;;20.64;67.04;100558.38;21154526;28;20474;-70
2021/07/07 20:21:17;;;;;;;5.35;1.83;;;;;;;20.49;67.86;100570.72;21153912;28;20051;-70
2021/07/07 20:31:19;;;;;;;5.05;1.80;;;;;;;20.43;68.41;100581.66;21152090;28;20343;-70
2021/07/07 20:41:21;;;;;;;5.32;1.85;;;;;;;20.12;69.51;100580.63;21152881;28;20051;-70
2021/07/07 20:51:23;;;;;;;9.15;1.65;;;;;;;19.68;71.84;100597.03;21158614;28;20047;-70
2021/07/07 21:01:25;;;;;;;4.60;1.80;;;;;;;19.75;72.49;100596.75;21236608;28;20054;-69
2021/07/07 21:11:27;;;;;;;5.30;1.63;;;;;;;19.64;72.35;100616.75;21236009;28;20214;-69
2021/07/07 21:21:29;;;;;;;7.00;1.77;;;;;;;19.25;73.85;100616.00;21236001;28;20480;-69
2021/07/07 21:31:31;;;;;;;5.53;1.90;;;;;;;19.04;74.97;100616.09;21235813;28;20039;-69
2021/07/07 21:41:36;;;;;;;5.38;1.80;;;;;;;18.95;75.31;100619.19;21241568;27;20047;-70
2021/07/07 21:51:38;;;;;;;5.22;1.70;;;;;;;18.80;76.26;100622.56;21250635;27;20039;-70
2021/07/07 22:01:39;;;;;;;4.88;1.80;;;;;;;18.71;76.86;100623.84;21249938;27;20489;-69
2021/07/07 22:11:41;;;;;;;3.55;1.55;;;;;;;18.55;78.01;100610.38;21247908;27;20074;-69
2021/07/07 22:21:43;;;;;;;6.90;1.70;;;;;;;18.34;78.80;100632.53;21248437;27;20504;-70
2021/07/07 22:31:45;;;;;;;4.63;1.80;;;;;;;18.15;79.43;100638.63;21246421;27;20047;-70
2021/07/07 22:41:48;;;;;;;4.07;1.85;;;;;;;18.15;79.52;100651.03;21247085;27;20050;-70
2021/07/07 22:51:51;;;;;;;5.18;2.05;;;;;;;17.91;81.15;100651.13;21245924;27;20077;-70
2021/07/07 23:01:53;;;;;;;3.37;1.70;;;;;;;17.95;80.36;100641.28;21245406;27;20043;-69
2021/07/07 23:11:55;;;;;;;7.43;2.17;;;;;;;17.79;81.73;100653.47;21244861;27;20039;-69
2021/07/07 23:21:58;;;;;;;3.80;1.90;;;;;;;18.00;80.69;100664.94;21243287;27;20481;-69
2021/07/07 23:31:59;;;;;;;5.32;2.30;;;;;;;17.84;81.35;100657.63;21240754;27;20543;-69
2021/07/07 23:42:01;;;;;;;5.32;1.95;;;;;;;17.72;81.75;100665.19;21242184;27;20074;-69
2021/07/07 23:52:04;;;;;;;5.55;1.98;;;;;;;17.63;81.98;100667.31;21228739;27;20555;-70
